Startpagina
METAR-TAF:

METAR-TAF

Vliegvelden :

Teheran Mehrabad International Airport

Teheran, Iran

breedte: 35-41N, lengte: 051-21E, hoogte: 1204 m

Actueel weer

Dit bericht is 29 minuten geleden gemaakt, om 16:30 UTC
Wind 4 kt uit het noordnoordoosten
Temperatuur 32°C
Vochtigheid 17%
Druk 1012 hPa
Zicht 10 km of meer
geen wolken onder 1500 m en geen cumulonimbus

METAR: OIII 151630Z 03004KT CAVOK 32/04 Q1012 A2989

Tijdstip: 21:29 (16:59 UTC)

Verwachting

Dit bericht is 5 uur en het 49 minuten geleden gemaakt, om 11:10 UTC
Verwachting geldig van 15 om 12 UTC tot 16 om 18 UTC
Wind 10 kt uit het zuidzuidoosten
Zicht 10 km of meer
geen wolken onder 1500 m en geen cumulonimbus
Wijzigt naar
van 15 om 20 UTC tot 15 om 22 UTC
Wind 8 kt uit het westnoordwesten
Wijzigt naar
van 16 om 04 UTC tot 16 om 06 UTC
Wind 10 kt uit het zuidzuidoosten

TAF: OIII 151110Z 1512/1618 15005MPS CAVOK BECMG 1520/1522 29004MPS BECMG 1604/1606 15005MPS

Waarnemingen en weersverwachtingen van meer dan 4000 vliegvelden (METAR en TAF).

De beschikbare stations zijn de gele en rode punten op de kaart.

Ga met uw muis naar het station om de naam te zien.

Klik dan om waarnemingen en weersverwachtingen te zien.

kaart wijzigen: klik op de groene knoppen met een zwart kruis om in te zoomen, op de groene knop met een streepje om uit te zoomen of op de groene pijlen voor aangrenzende kaarten.


METAR-TAF: